sensor_id;sensor_type;location;lat;lon;timestamp;P1;durP1;ratioP1;P2;durP2;ratioP2
76021;SDS011;64718;52.124;6.226;2023-07-13T00:00:05;4.32;;;1.15;;
76021;SDS011;64718;52.124;6.226;2023-07-13T00:02:35;3.38;;;1.20;;
76021;SDS011;64718;52.124;6.226;2023-07-13T00:05:03;5.22;;;0.80;;
76021;SDS011;64718;52.124;6.226;2023-07-13T00:07:31;3.33;;;0.75;;
76021;SDS011;64718;52.124;6.226;2023-07-13T00:09:58;6.00;;;0.88;;
76021;SDS011;64718;52.124;6.226;2023-07-13T00:12:26;3.05;;;1.42;;
76021;SDS011;64718;52.124;6.226;2023-07-13T00:14:55;3.60;;;1.23;;
76021;SDS011;64718;52.124;6.226;2023-07-13T00:17:23;3.70;;;1.35;;
76021;SDS011;64718;52.124;6.226;2023-07-13T00:19:50;3.65;;;1.30;;
76021;SDS011;64718;52.124;6.226;2023-07-13T00:22:18;5.18;;;1.23;;
76021;SDS011;64718;52.124;6.226;2023-07-13T00:24:45;3.05;;;1.42;;
76021;SDS011;64718;52.124;6.226;2023-07-13T00:27:12;2.60;;;1.25;;
76021;SDS011;64718;52.124;6.226;2023-07-13T00:29:40;3.20;;;1.55;;
76021;SDS011;64718;52.124;6.226;2023-07-13T00:32:08;2.75;;;0.90;;
76021;SDS011;64718;52.124;6.226;2023-07-13T00:34:36;6.80;;;1.63;;
76021;SDS011;64718;52.124;6.226;2023-07-13T00:37:03;3.78;;;1.52;;
76021;SDS011;64718;52.124;6.226;2023-07-13T00:39:34;6.15;;;2.53;;
76021;SDS011;64718;52.124;6.226;2023-07-13T00:44:28;4.25;;;1.70;;
76021;SDS011;64718;52.124;6.226;2023-07-13T00:46:55;3.75;;;1.30;;
76021;SDS011;64718;52.124;6.226;2023-07-13T00:49:24;4.75;;;1.20;;
76021;SDS011;64718;52.124;6.226;2023-07-13T00:51:54;4.90;;;1.27;;
76021;SDS011;64718;52.124;6.226;2023-07-13T00:54:24;2.42;;;1.20;;
76021;SDS011;64718;52.124;6.226;2023-07-13T00:56:55;3.72;;;1.60;;
76021;SDS011;64718;52.124;6.226;2023-07-13T00:59:24;8.75;;;2.10;;
76021;SDS011;64718;52.124;6.226;2023-07-13T01:01:52;3.78;;;1.20;;
76021;SDS011;64718;52.124;6.226;2023-07-13T01:04:20;2.75;;;1.13;;
76021;SDS011;64718;52.124;6.226;2023-07-13T01:06:49;6.90;;;1.40;;
76021;SDS011;64718;52.124;6.226;2023-07-13T01:09:16;10.00;;;1.50;;
76021;SDS011;64718;52.124;6.226;2023-07-13T01:11:44;2.92;;;1.27;;
76021;SDS011;64718;52.124;6.226;2023-07-13T01:14:12;2.83;;;1.00;;
76021;SDS011;64718;52.124;6.226;2023-07-13T01:16:40;4.38;;;1.40;;
76021;SDS011;64718;52.124;6.226;2023-07-13T01:19:11;2.13;;;1.00;;
76021;SDS011;64718;52.124;6.226;2023-07-13T01:21:51;7.57;;;1.60;;
76021;SDS011;64718;52.124;6.226;2023-07-13T01:24:18;3.00;;;1.10;;
76021;SDS011;64718;52.124;6.226;2023-07-13T01:26:45;3.25;;;1.30;;
76021;SDS011;64718;52.124;6.226;2023-07-13T01:29:12;5.15;;;1.17;;
76021;SDS011;64718;52.124;6.226;2023-07-13T01:31:39;3.33;;;0.93;;
76021;SDS011;64718;52.124;6.226;2023-07-13T01:34:05;2.67;;;1.08;;
76021;SDS011;64718;52.124;6.226;2023-07-13T01:36:33;4.00;;;1.25;;
76021;SDS011;64718;52.124;6.226;2023-07-13T01:39:02;5.60;;;1.15;;
76021;SDS011;64718;52.124;6.226;2023-07-13T01:43:56;4.07;;;0.85;;
76021;SDS011;64718;52.124;6.226;2023-07-13T01:46:23;9.02;;;1.20;;
76021;SDS011;64718;52.124;6.226;2023-07-13T01:48:49;4.05;;;1.30;;
76021;SDS011;64718;52.124;6.226;2023-07-13T01:51:17;2.58;;;0.90;;
76021;SDS011;64718;52.124;6.226;2023-07-13T01:53:46;3.83;;;1.20;;
76021;SDS011;64718;52.124;6.226;2023-07-13T01:56:14;2.60;;;0.95;;
76021;SDS011;64718;52.124;6.226;2023-07-13T01:58:41;3.30;;;1.05;;
76021;SDS011;64718;52.124;6.226;2023-07-13T02:01:08;4.50;;;1.10;;
76021;SDS011;64718;52.124;6.226;2023-07-13T02:03:35;3.60;;;1.00;;
76021;SDS011;64718;52.124;6.226;2023-07-13T02:06:01;2.83;;;1.38;;
76021;SDS011;64718;52.124;6.226;2023-07-13T02:08:28;2.45;;;1.00;;
76021;SDS011;64718;52.124;6.226;2023-07-13T02:10:55;5.68;;;1.00;;
76021;SDS011;64718;52.124;6.226;2023-07-13T02:13:23;2.47;;;1.48;;
76021;SDS011;64718;52.124;6.226;2023-07-13T02:15:50;4.68;;;1.15;;
76021;SDS011;64718;52.124;6.226;2023-07-13T02:18:17;2.60;;;1.67;;
76021;SDS011;64718;52.124;6.226;2023-07-13T02:20:44;3.05;;;1.02;;
76021;SDS011;64718;52.124;6.226;2023-07-13T02:23:11;6.10;;;1.77;;
76021;SDS011;64718;52.124;6.226;2023-07-13T02:25:37;3.80;;;0.90;;
76021;SDS011;64718;52.124;6.226;2023-07-13T02:28:04;2.90;;;2.08;;
76021;SDS011;64718;52.124;6.226;2023-07-13T02:30:34;3.88;;;1.25;;
76021;SDS011;64718;52.124;6.226;2023-07-13T02:33:01;4.10;;;1.50;;
76021;SDS011;64718;52.124;6.226;2023-07-13T02:35:28;3.92;;;1.10;;
76021;SDS011;64718;52.124;6.226;2023-07-13T02:37:54;4.53;;;1.02;;
76021;SDS011;64718;52.124;6.226;2023-07-13T02:40:21;2.35;;;0.95;;
76021;SDS011;64718;52.124;6.226;2023-07-13T02:42:48;7.63;;;1.05;;
76021;SDS011;64718;52.124;6.226;2023-07-13T02:45:15;6.78;;;1.52;;
76021;SDS011;64718;52.124;6.226;2023-07-13T02:47:43;3.20;;;1.20;;
76021;SDS011;64718;52.124;6.226;2023-07-13T02:50:10;3.90;;;1.35;;
76021;SDS011;64718;52.124;6.226;2023-07-13T02:52:36;5.55;;;1.40;;
76021;SDS011;64718;52.124;6.226;2023-07-13T02:55:03;7.70;;;1.70;;
76021;SDS011;64718;52.124;6.226;2023-07-13T02:57:30;3.47;;;1.00;;
76021;SDS011;64718;52.124;6.226;2023-07-13T02:59:58;3.03;;;1.15;;
76021;SDS011;64718;52.124;6.226;2023-07-13T03:02:24;5.50;;;1.77;;
76021;SDS011;64718;52.124;6.226;2023-07-13T03:04:54;4.45;;;1.90;;
76021;SDS011;64718;52.124;6.226;2023-07-13T03:07:21;3.70;;;1.42;;
76021;SDS011;64718;52.124;6.226;2023-07-13T03:09:48;3.50;;;1.73;;
76021;SDS011;64718;52.124;6.226;2023-07-13T03:12:14;3.65;;;1.60;;
76021;SDS011;64718;52.124;6.226;2023-07-13T03:14:41;4.45;;;1.23;;
76021;SDS011;64718;52.124;6.226;2023-07-13T03:17:08;6.35;;;2.13;;
76021;SDS011;64718;52.124;6.226;2023-07-13T03:19:34;3.47;;;1.55;;
76021;SDS011;64718;52.124;6.226;2023-07-13T03:22:03;5.88;;;1.60;;
76021;SDS011;64718;52.124;6.226;2023-07-13T03:24:30;5.28;;;1.63;;
76021;SDS011;64718;52.124;6.226;2023-07-13T03:26:58;3.10;;;1.63;;
76021;SDS011;64718;52.124;6.226;2023-07-13T03:29:25;7.55;;;2.22;;
76021;SDS011;64718;52.124;6.226;2023-07-13T03:31:52;3.63;;;1.55;;
76021;SDS011;64718;52.124;6.226;2023-07-13T03:34:18;3.80;;;1.80;;
76021;SDS011;64718;52.124;6.226;2023-07-13T03:36:45;5.10;;;1.52;;
76021;SDS011;64718;52.124;6.226;2023-07-13T03:39:13;6.32;;;2.25;;
76021;SDS011;64718;52.124;6.226;2023-07-13T03:41:40;5.85;;;1.55;;
76021;SDS011;64718;52.124;6.226;2023-07-13T03:44:07;9.48;;;1.75;;
76021;SDS011;64718;52.124;6.226;2023-07-13T03:46:34;6.60;;;1.90;;
76021;SDS011;64718;52.124;6.226;2023-07-13T03:49:00;8.68;;;2.30;;
76021;SDS011;64718;52.124;6.226;2023-07-13T03:51:27;4.00;;;1.80;;
76021;SDS011;64718;52.124;6.226;2023-07-13T03:53:54;6.00;;;2.17;;
76021;SDS011;64718;52.124;6.226;2023-07-13T03:56:22;6.93;;;1.98;;
76021;SDS011;64718;52.124;6.226;2023-07-13T03:58:50;6.63;;;1.92;;
76021;SDS011;64718;52.124;6.226;2023-07-13T04:01:17;8.15;;;2.00;;
76021;SDS011;64718;52.124;6.226;2023-07-13T04:03:46;3.70;;;1.80;;
76021;SDS011;64718;52.124;6.226;2023-07-13T04:06:14;12.00;;;3.50;;
76021;SDS011;64718;52.124;6.226;2023-07-13T04:08:46;6.28;;;1.70;;
76021;SDS011;64718;52.124;6.226;2023-07-13T04:11:14;8.27;;;1.83;;
76021;SDS011;64718;52.124;6.226;2023-07-13T04:13:42;6.97;;;2.35;;
76021;SDS011;64718;52.124;6.226;2023-07-13T04:16:09;7.88;;;2.00;;
76021;SDS011;64718;52.124;6.226;2023-07-13T04:18:35;8.48;;;3.42;;
76021;SDS011;64718;52.124;6.226;2023-07-13T04:21:02;5.40;;;2.13;;
76021;SDS011;64718;52.124;6.226;2023-07-13T04:23:29;8.63;;;2.33;;
76021;SDS011;64718;52.124;6.226;2023-07-13T04:25:56;6.10;;;2.00;;
76021;SDS011;64718;52.124;6.226;2023-07-13T04:28:23;4.53;;;2.40;;
76021;SDS011;64718;52.124;6.226;2023-07-13T04:30:53;5.93;;;2.05;;
76021;SDS011;64718;52.124;6.226;2023-07-13T04:33:21;4.03;;;2.08;;
76021;SDS011;64718;52.124;6.226;2023-07-13T04:35:48;7.30;;;2.22;;
76021;SDS011;64718;52.124;6.226;2023-07-13T04:38:21;6.63;;;2.08;;
76021;SDS011;64718;52.124;6.226;2023-07-13T04:40:49;4.72;;;1.85;;
76021;SDS011;64718;52.124;6.226;2023-07-13T04:43:16;6.22;;;2.53;;
76021;SDS011;64718;52.124;6.226;2023-07-13T04:45:43;7.97;;;2.20;;
76021;SDS011;64718;52.124;6.226;2023-07-13T04:48:11;7.72;;;2.22;;
76021;SDS011;64718;52.124;6.226;2023-07-13T04:50:38;5.95;;;2.03;;
76021;SDS011;64718;52.124;6.226;2023-07-13T04:53:05;4.32;;;1.83;;
76021;SDS011;64718;52.124;6.226;2023-07-13T04:55:32;7.25;;;2.40;;
76021;SDS011;64718;52.124;6.226;2023-07-13T04:57:59;6.72;;;2.10;;
76021;SDS011;64718;52.124;6.226;2023-07-13T05:00:26;5.53;;;1.98;;
76021;SDS011;64718;52.124;6.226;2023-07-13T05:02:53;5.18;;;2.00;;
76021;SDS011;64718;52.124;6.226;2023-07-13T05:05:22;5.85;;;1.92;;
76021;SDS011;64718;52.124;6.226;2023-07-13T05:10:16;6.75;;;2.67;;
76021;SDS011;64718;52.124;6.226;2023-07-13T05:12:43;10.00;;;1.95;;
76021;SDS011;64718;52.124;6.226;2023-07-13T05:15:10;8.75;;;2.75;;
76021;SDS011;64718;52.124;6.226;2023-07-13T05:17:37;8.07;;;2.53;;
76021;SDS011;64718;52.124;6.226;2023-07-13T05:20:05;7.60;;;3.55;;
76021;SDS011;64718;52.124;6.226;2023-07-13T05:22:34;6.47;;;3.05;;
76021;SDS011;64718;52.124;6.226;2023-07-13T05:25:01;6.72;;;2.10;;
76021;SDS011;64718;52.124;6.226;2023-07-13T05:27:29;5.70;;;2.30;;
76021;SDS011;64718;52.124;6.226;2023-07-13T05:29:56;6.45;;;2.33;;
76021;SDS011;64718;52.124;6.226;2023-07-13T05:32:22;9.10;;;3.35;;
76021;SDS011;64718;52.124;6.226;2023-07-13T05:34:49;9.52;;;2.60;;
76021;SDS011;64718;52.124;6.226;2023-07-13T05:37:16;8.02;;;3.10;;
76021;SDS011;64718;52.124;6.226;2023-07-13T05:39:44;7.55;;;3.00;;
76021;SDS011;64718;52.124;6.226;2023-07-13T05:42:11;7.22;;;2.90;;
76021;SDS011;64718;52.124;6.226;2023-07-13T05:44:37;5.22;;;3.25;;
76021;SDS011;64718;52.124;6.226;2023-07-13T05:47:04;9.02;;;3.35;;
76021;SDS011;64718;52.124;6.226;2023-07-13T05:49:32;8.95;;;2.75;;
76021;SDS011;64718;52.124;6.226;2023-07-13T05:51:58;10.63;;;3.17;;
76021;SDS011;64718;52.124;6.226;2023-07-13T05:54:25;8.30;;;3.63;;
76021;SDS011;64718;52.124;6.226;2023-07-13T05:56:54;10.70;;;2.50;;
76021;SDS011;64718;52.124;6.226;2023-07-13T05:59:20;9.25;;;3.20;;
76021;SDS011;64718;52.124;6.226;2023-07-13T06:01:47;7.75;;;3.65;;
76021;SDS011;64718;52.124;6.226;2023-07-13T06:04:17;7.97;;;3.80;;
76021;SDS011;64718;52.124;6.226;2023-07-13T06:06:44;10.57;;;3.47;;
76021;SDS011;64718;52.124;6.226;2023-07-13T06:09:10;11.15;;;5.47;;
76021;SDS011;64718;52.124;6.226;2023-07-13T06:11:37;12.20;;;4.32;;
76021;SDS011;64718;52.124;6.226;2023-07-13T06:14:05;13.93;;;5.03;;
76021;SDS011;64718;52.124;6.226;2023-07-13T06:16:32;9.63;;;4.50;;
76021;SDS011;64718;52.124;6.226;2023-07-13T06:18:58;12.82;;;5.30;;
76021;SDS011;64718;52.124;6.226;2023-07-13T06:21:25;12.40;;;5.30;;
76021;SDS011;64718;52.124;6.226;2023-07-13T06:23:52;12.00;;;5.15;;
76021;SDS011;64718;52.124;6.226;2023-07-13T06:26:19;11.15;;;4.22;;
76021;SDS011;64718;52.124;6.226;2023-07-13T06:28:47;15.60;;;5.38;;
76021;SDS011;64718;52.124;6.226;2023-07-13T06:31:15;10.80;;;5.13;;
76021;SDS011;64718;52.124;6.226;2023-07-13T06:36:09;11.25;;;4.72;;
76021;SDS011;64718;52.124;6.226;2023-07-13T06:38:37;11.85;;;5.07;;
76021;SDS011;64718;52.124;6.226;2023-07-13T06:41:05;11.90;;;6.40;;
76021;SDS011;64718;52.124;6.226;2023-07-13T06:43:32;11.85;;;5.35;;
76021;SDS011;64718;52.124;6.226;2023-07-13T06:45:58;14.20;;;4.57;;
76021;SDS011;64718;52.124;6.226;2023-07-13T06:48:27;11.38;;;5.60;;
76021;SDS011;64718;52.124;6.226;2023-07-13T06:50:54;8.65;;;4.45;;
76021;SDS011;64718;52.124;6.226;2023-07-13T06:53:21;11.82;;;5.72;;
76021;SDS011;64718;52.124;6.226;2023-07-13T06:55:48;14.88;;;5.57;;
76021;SDS011;64718;52.124;6.226;2023-07-13T06:58:16;14.00;;;5.97;;
76021;SDS011;64718;52.124;6.226;2023-07-13T07:00:44;13.55;;;5.57;;
76021;SDS011;64718;52.124;6.226;2023-07-13T07:03:11;11.65;;;4.80;;
76021;SDS011;64718;52.124;6.226;2023-07-13T07:05:40;10.50;;;5.60;;
76021;SDS011;64718;52.124;6.226;2023-07-13T07:08:07;10.65;;;5.03;;
76021;SDS011;64718;52.124;6.226;2023-07-13T07:10:34;15.77;;;5.63;;
76021;SDS011;64718;52.124;6.226;2023-07-13T07:13:01;13.20;;;6.00;;
76021;SDS011;64718;52.124;6.226;2023-07-13T07:15:28;15.15;;;6.07;;
76021;SDS011;64718;52.124;6.226;2023-07-13T07:17:55;13.27;;;5.35;;
76021;SDS011;64718;52.124;6.226;2023-07-13T07:20:22;11.25;;;5.45;;
76021;SDS011;64718;52.124;6.226;2023-07-13T07:22:50;9.95;;;5.20;;
76021;SDS011;64718;52.124;6.226;2023-07-13T07:25:17;12.18;;;5.30;;
76021;SDS011;64718;52.124;6.226;2023-07-13T07:27:44;14.07;;;5.00;;
76021;SDS011;64718;52.124;6.226;2023-07-13T07:30:11;12.80;;;6.28;;
76021;SDS011;64718;52.124;6.226;2023-07-13T07:32:38;11.35;;;6.95;;
76021;SDS011;64718;52.124;6.226;2023-07-13T07:35:05;13.48;;;5.93;;
76021;SDS011;64718;52.124;6.226;2023-07-13T07:37:33;10.15;;;5.25;;
76021;SDS011;64718;52.124;6.226;2023-07-13T07:40:01;14.43;;;6.85;;
76021;SDS011;64718;52.124;6.226;2023-07-13T07:44:54;9.27;;;5.15;;
76021;SDS011;64718;52.124;6.226;2023-07-13T07:47:21;13.73;;;6.20;;
76021;SDS011;64718;52.124;6.226;2023-07-13T07:49:49;12.48;;;5.82;;
76021;SDS011;64718;52.124;6.226;2023-07-13T07:52:15;12.73;;;5.68;;
76021;SDS011;64718;52.124;6.226;2023-07-13T07:54:42;12.93;;;5.93;;
76021;SDS011;64718;52.124;6.226;2023-07-13T07:57:10;11.90;;;5.95;;
76021;SDS011;64718;52.124;6.226;2023-07-13T07:59:37;14.25;;;6.53;;
76021;SDS011;64718;52.124;6.226;2023-07-13T08:02:04;12.32;;;6.13;;
76021;SDS011;64718;52.124;6.226;2023-07-13T08:04:32;15.57;;;7.00;;
76021;SDS011;64718;52.124;6.226;2023-07-13T08:06:58;13.43;;;6.38;;
76021;SDS011;64718;52.124;6.226;2023-07-13T08:09:27;12.70;;;6.10;;
76021;SDS011;64718;52.124;6.226;2023-07-13T08:11:54;10.40;;;5.60;;
76021;SDS011;64718;52.124;6.226;2023-07-13T08:14:22;10.90;;;6.03;;
76021;SDS011;64718;52.124;6.226;2023-07-13T08:16:49;14.18;;;6.22;;
76021;SDS011;64718;52.124;6.226;2023-07-13T08:19:16;10.57;;;5.53;;
76021;SDS011;64718;52.124;6.226;2023-07-13T08:21:42;13.88;;;5.72;;
76021;SDS011;64718;52.124;6.226;2023-07-13T08:24:09;17.02;;;6.00;;
76021;SDS011;64718;52.124;6.226;2023-07-13T08:26:36;13.82;;;5.53;;
76021;SDS011;64718;52.124;6.226;2023-07-13T08:29:03;9.85;;;5.80;;
76021;SDS011;64718;52.124;6.226;2023-07-13T08:31:31;11.70;;;6.38;;
76021;SDS011;64718;52.124;6.226;2023-07-13T08:33:58;12.73;;;5.65;;
76021;SDS011;64718;52.124;6.226;2023-07-13T08:36:25;14.80;;;5.45;;
76021;SDS011;64718;52.124;6.226;2023-07-13T08:38:52;13.38;;;6.03;;
76021;SDS011;64718;52.124;6.226;2023-07-13T08:41:21;20.20;;;6.22;;
76021;SDS011;64718;52.124;6.226;2023-07-13T08:43:50;14.40;;;6.47;;
76021;SDS011;64718;52.124;6.226;2023-07-13T08:46:23;11.82;;;6.03;;
76021;SDS011;64718;52.124;6.226;2023-07-13T08:48:56;12.32;;;6.15;;
76021;SDS011;64718;52.124;6.226;2023-07-13T08:51:26;9.65;;;5.63;;
76021;SDS011;64718;52.124;6.226;2023-07-13T08:54:00;8.93;;;5.65;;
76021;SDS011;64718;52.124;6.226;2023-07-13T08:56:30;8.25;;;5.30;;
76021;SDS011;64718;52.124;6.226;2023-07-13T08:58:59;10.18;;;5.40;;
76021;SDS011;64718;52.124;6.226;2023-07-13T09:01:33;13.10;;;4.93;;
76021;SDS011;64718;52.124;6.226;2023-07-13T09:04:22;11.63;;;5.60;;
76021;SDS011;64718;52.124;6.226;2023-07-13T09:06:55;9.68;;;5.13;;
76021;SDS011;64718;52.124;6.226;2023-07-13T09:09:32;18.02;;;4.55;;
76021;SDS011;64718;52.124;6.226;2023-07-13T09:12:09;6.65;;;4.40;;
76021;SDS011;64718;52.124;6.226;2023-07-13T09:14:44;11.27;;;4.72;;
76021;SDS011;64718;52.124;6.226;2023-07-13T09:17:15;9.13;;;4.82;;
76021;SDS011;64718;52.124;6.226;2023-07-13T09:19:47;9.45;;;4.47;;
76021;SDS011;64718;52.124;6.226;2023-07-13T09:22:20;9.60;;;5.00;;
76021;SDS011;64718;52.124;6.226;2023-07-13T09:24:52;12.07;;;5.18;;
76021;SDS011;64718;52.124;6.226;2023-07-13T09:27:27;8.38;;;5.00;;
76021;SDS011;64718;52.124;6.226;2023-07-13T09:30:02;8.45;;;5.20;;
76021;SDS011;64718;52.124;6.226;2023-07-13T09:32:37;11.32;;;4.90;;
76021;SDS011;64718;52.124;6.226;2023-07-13T09:35:10;8.90;;;4.05;;
76021;SDS011;64718;52.124;6.226;2023-07-13T09:37:38;9.38;;;5.07;;
76021;SDS011;64718;52.124;6.226;2023-07-13T09:40:08;10.07;;;4.38;;
76021;SDS011;64718;52.124;6.226;2023-07-13T09:42:51;9.77;;;4.43;;
76021;SDS011;64718;52.124;6.226;2023-07-13T09:45:26;6.43;;;3.80;;
76021;SDS011;64718;52.124;6.226;2023-07-13T09:47:58;7.38;;;4.15;;
76021;SDS011;64718;52.124;6.226;2023-07-13T09:50:27;12.30;;;4.63;;
76021;SDS011;64718;52.124;6.226;2023-07-13T09:52:55;6.20;;;4.07;;
76021;SDS011;64718;52.124;6.226;2023-07-13T09:55:25;7.63;;;3.97;;
76021;SDS011;64718;52.124;6.226;2023-07-13T09:57:55;9.45;;;5.18;;
76021;SDS011;64718;52.124;6.226;2023-07-13T10:00:23;8.52;;;3.80;;
76021;SDS011;64718;52.124;6.226;2023-07-13T10:03:01;6.82;;;4.07;;
76021;SDS011;64718;52.124;6.226;2023-07-13T10:05:38;8.48;;;4.38;;
76021;SDS011;64718;52.124;6.226;2023-07-13T10:08:06;6.97;;;3.85;;
76021;SDS011;64718;52.124;6.226;2023-07-13T10:10:41;4.30;;;3.08;;
76021;SDS011;64718;52.124;6.226;2023-07-13T10:13:12;5.50;;;3.38;;
76021;SDS011;64718;52.124;6.226;2023-07-13T10:15:52;5.47;;;3.60;;
76021;SDS011;64718;52.124;6.226;2023-07-13T10:18:19;6.82;;;3.30;;
76021;SDS011;64718;52.124;6.226;2023-07-13T10:20:49;6.78;;;3.33;;
76021;SDS011;64718;52.124;6.226;2023-07-13T10:23:21;8.20;;;4.18;;
76021;SDS011;64718;52.124;6.226;2023-07-13T10:25:52;6.20;;;3.67;;
76021;SDS011;64718;52.124;6.226;2023-07-13T10:28:22;4.55;;;1.95;;
76021;SDS011;64718;52.124;6.226;2023-07-13T10:30:59;4.63;;;2.63;;
76021;SDS011;64718;52.124;6.226;2023-07-13T10:33:27;3.33;;;1.58;;
76021;SDS011;64718;52.124;6.226;2023-07-13T10:35:59;5.43;;;2.10;;
76021;SDS011;64718;52.124;6.226;2023-07-13T10:38:34;4.20;;;1.88;;
76021;SDS011;64718;52.124;6.226;2023-07-13T10:41:02;3.70;;;1.90;;
76021;SDS011;64718;52.124;6.226;2023-07-13T10:43:33;4.07;;;1.92;;
76021;SDS011;64718;52.124;6.226;2023-07-13T10:46:02;5.72;;;1.88;;
76021;SDS011;64718;52.124;6.226;2023-07-13T10:48:32;4.55;;;2.42;;
76021;SDS011;64718;52.124;6.226;2023-07-13T10:51:03;4.93;;;2.55;;
76021;SDS011;64718;52.124;6.226;2023-07-13T10:53:33;6.05;;;2.10;;
76021;SDS011;64718;52.124;6.226;2023-07-13T10:56:02;4.90;;;2.20;;
76021;SDS011;64718;52.124;6.226;2023-07-13T10:58:34;4.13;;;2.33;;
76021;SDS011;64718;52.124;6.226;2023-07-13T11:01:04;7.72;;;2.55;;
76021;SDS011;64718;52.124;6.226;2023-07-13T11:03:36;4.75;;;2.50;;
76021;SDS011;64718;52.124;6.226;2023-07-13T11:06:07;5.65;;;2.53;;
76021;SDS011;64718;52.124;6.226;2023-07-13T11:08:37;5.45;;;2.40;;
76021;SDS011;64718;52.124;6.226;2023-07-13T11:11:35;4.68;;;3.42;;
76021;SDS011;64718;52.124;6.226;2023-07-13T11:14:03;6.68;;;2.78;;
76021;SDS011;64718;52.124;6.226;2023-07-13T11:16:36;6.53;;;2.70;;
76021;SDS011;64718;52.124;6.226;2023-07-13T11:22:21;6.30;;;2.50;;
76021;SDS011;64718;52.124;6.226;2023-07-13T11:24:56;3.67;;;1.85;;
76021;SDS011;64718;52.124;6.226;2023-07-13T11:27:33;3.72;;;1.95;;
76021;SDS011;64718;52.124;6.226;2023-07-13T11:30:13;4.80;;;2.17;;
76021;SDS011;64718;52.124;6.226;2023-07-13T11:32:50;5.47;;;2.13;;
76021;SDS011;64718;52.124;6.226;2023-07-13T11:35:32;4.80;;;2.13;;
76021;SDS011;64718;52.124;6.226;2023-07-13T11:38:03;5.78;;;2.20;;
76021;SDS011;64718;52.124;6.226;2023-07-13T11:40:41;5.30;;;2.42;;
76021;SDS011;64718;52.124;6.226;2023-07-13T11:43:11;4.10;;;2.88;;
76021;SDS011;64718;52.124;6.226;2023-07-13T11:45:40;2.58;;;1.90;;
76021;SDS011;64718;52.124;6.226;2023-07-13T11:48:17;3.15;;;1.80;;
76021;SDS011;64718;52.124;6.226;2023-07-13T11:50:49;2.88;;;1.25;;
76021;SDS011;64718;52.124;6.226;2023-07-13T11:53:20;1.80;;;1.65;;
76021;SDS011;64718;52.124;6.226;2023-07-13T11:55:47;1.95;;;0.98;;
76021;SDS011;64718;52.124;6.226;2023-07-13T11:58:16;2.40;;;0.85;;
76021;SDS011;64718;52.124;6.226;2023-07-13T12:00:46;3.17;;;1.27;;
76021;SDS011;64718;52.124;6.226;2023-07-13T12:03:13;2.88;;;1.40;;
76021;SDS011;64718;52.124;6.226;2023-07-13T12:05:55;3.75;;;2.85;;
76021;SDS011;64718;52.124;6.226;2023-07-13T12:08:25;4.15;;;1.90;;
76021;SDS011;64718;52.124;6.226;2023-07-13T12:11:03;2.47;;;1.73;;
76021;SDS011;64718;52.124;6.226;2023-07-13T12:13:35;3.40;;;1.70;;
76021;SDS011;64718;52.124;6.226;2023-07-13T12:16:07;2.47;;;1.65;;
76021;SDS011;64718;52.124;6.226;2023-07-13T12:18:38;3.90;;;1.70;;
76021;SDS011;64718;52.124;6.226;2023-07-13T12:21:10;4.10;;;1.58;;
76021;SDS011;64718;52.124;6.226;2023-07-13T12:23:42;4.22;;;1.60;;
76021;SDS011;64718;52.124;6.226;2023-07-13T12:26:10;2.42;;;1.52;;
76021;SDS011;64718;52.124;6.226;2023-07-13T12:28:39;3.33;;;1.83;;
76021;SDS011;64718;52.124;6.226;2023-07-13T12:31:23;2.85;;;1.58;;
76021;SDS011;64718;52.124;6.226;2023-07-13T12:33:56;2.92;;;1.55;;
76021;SDS011;64718;52.124;6.226;2023-07-13T12:36:24;3.75;;;2.10;;
76021;SDS011;64718;52.124;6.226;2023-07-13T12:38:52;3.40;;;1.95;;
76021;SDS011;64718;52.124;6.226;2023-07-13T12:41:19;3.63;;;1.80;;
76021;SDS011;64718;52.124;6.226;2023-07-13T12:43:48;2.60;;;1.60;;
76021;SDS011;64718;52.124;6.226;2023-07-13T12:46:16;2.67;;;1.63;;
76021;SDS011;64718;52.124;6.226;2023-07-13T12:48:48;3.65;;;1.40;;
76021;SDS011;64718;52.124;6.226;2023-07-13T12:51:15;4.30;;;1.67;;
76021;SDS011;64718;52.124;6.226;2023-07-13T12:53:46;3.72;;;1.33;;
76021;SDS011;64718;52.124;6.226;2023-07-13T12:56:18;5.70;;;1.60;;
76021;SDS011;64718;52.124;6.226;2023-07-13T12:58:47;9.32;;;2.63;;
76021;SDS011;64718;52.124;6.226;2023-07-13T13:01:19;4.03;;;2.10;;
76021;SDS011;64718;52.124;6.226;2023-07-13T13:03:48;4.88;;;2.08;;
76021;SDS011;64718;52.124;6.226;2023-07-13T13:06:20;4.72;;;1.90;;
76021;SDS011;64718;52.124;6.226;2023-07-13T13:08:51;2.67;;;1.90;;
76021;SDS011;64718;52.124;6.226;2023-07-13T13:11:21;3.72;;;1.90;;
76021;SDS011;64718;52.124;6.226;2023-07-13T13:13:49;3.63;;;2.35;;
76021;SDS011;64718;52.124;6.226;2023-07-13T13:16:18;6.63;;;2.78;;
76021;SDS011;64718;52.124;6.226;2023-07-13T13:18:48;2.90;;;2.17;;
76021;SDS011;64718;52.124;6.226;2023-07-13T13:21:16;3.55;;;1.50;;
76021;SDS011;64718;52.124;6.226;2023-07-13T13:23:44;3.83;;;1.42;;
76021;SDS011;64718;52.124;6.226;2023-07-13T13:26:11;1.30;;;1.10;;
76021;SDS011;64718;52.124;6.226;2023-07-13T13:28:42;2.40;;;1.67;;
76021;SDS011;64718;52.124;6.226;2023-07-13T13:31:09;2.33;;;1.40;;
76021;SDS011;64718;52.124;6.226;2023-07-13T13:33:39;1.95;;;1.35;;
76021;SDS011;64718;52.124;6.226;2023-07-13T13:36:11;4.65;;;1.60;;
76021;SDS011;64718;52.124;6.226;2023-07-13T13:38:42;3.78;;;2.25;;
76021;SDS011;64718;52.124;6.226;2023-07-13T13:41:09;2.10;;;1.70;;
76021;SDS011;64718;52.124;6.226;2023-07-13T13:43:38;4.28;;;1.92;;
76021;SDS011;64718;52.124;6.226;2023-07-13T13:46:11;2.85;;;1.60;;
76021;SDS011;64718;52.124;6.226;2023-07-13T13:48:41;4.05;;;2.88;;
76021;SDS011;64718;52.124;6.226;2023-07-13T13:51:12;3.35;;;1.52;;
76021;SDS011;64718;52.124;6.226;2023-07-13T13:53:41;4.03;;;1.45;;
76021;SDS011;64718;52.124;6.226;2023-07-13T13:56:08;2.17;;;1.95;;
76021;SDS011;64718;52.124;6.226;2023-07-13T13:58:35;3.67;;;1.58;;
76021;SDS011;64718;52.124;6.226;2023-07-13T14:01:02;2.38;;;1.30;;
76021;SDS011;64718;52.124;6.226;2023-07-13T14:03:32;2.78;;;1.67;;
76021;SDS011;64718;52.124;6.226;2023-07-13T14:05:59;4.18;;;1.58;;
76021;SDS011;64718;52.124;6.226;2023-07-13T14:08:26;5.60;;;1.65;;
76021;SDS011;64718;52.124;6.226;2023-07-13T14:10:53;2.50;;;1.30;;
76021;SDS011;64718;52.124;6.226;2023-07-13T14:13:26;4.15;;;2.55;;
76021;SDS011;64718;52.124;6.226;2023-07-13T14:15:54;4.10;;;1.70;;
76021;SDS011;64718;52.124;6.226;2023-07-13T14:18:21;2.13;;;1.80;;
76021;SDS011;64718;52.124;6.226;2023-07-13T14:20:50;3.83;;;1.38;;
76021;SDS011;64718;52.124;6.226;2023-07-13T14:23:17;3.00;;;1.58;;
76021;SDS011;64718;52.124;6.226;2023-07-13T14:25:44;3.28;;;1.67;;
76021;SDS011;64718;52.124;6.226;2023-07-13T14:28:23;3.00;;;1.98;;
76021;SDS011;64718;52.124;6.226;2023-07-13T14:30:51;1.63;;;1.05;;
76021;SDS011;64718;52.124;6.226;2023-07-13T14:33:19;3.88;;;1.70;;
76021;SDS011;64718;52.124;6.226;2023-07-13T14:35:46;3.70;;;1.63;;
76021;SDS011;64718;52.124;6.226;2023-07-13T14:38:15;3.08;;;2.35;;
76021;SDS011;64718;52.124;6.226;2023-07-13T14:40:45;4.60;;;1.60;;
76021;SDS011;64718;52.124;6.226;2023-07-13T14:43:12;3.00;;;2.17;;
76021;SDS011;64718;52.124;6.226;2023-07-13T14:45:40;2.60;;;1.10;;
76021;SDS011;64718;52.124;6.226;2023-07-13T14:48:13;2.38;;;1.55;;
76021;SDS011;64718;52.124;6.226;2023-07-13T14:50:42;4.40;;;1.65;;
76021;SDS011;64718;52.124;6.226;2023-07-13T14:53:09;3.00;;;1.50;;
76021;SDS011;64718;52.124;6.226;2023-07-13T14:55:38;3.60;;;1.60;;
76021;SDS011;64718;52.124;6.226;2023-07-13T14:58:05;3.90;;;1.40;;
76021;SDS011;64718;52.124;6.226;2023-07-13T15:00:32;2.85;;;1.20;;
76021;SDS011;64718;52.124;6.226;2023-07-13T15:02:59;3.97;;;1.50;;
76021;SDS011;64718;52.124;6.226;2023-07-13T15:05:28;1.67;;;1.55;;
76021;SDS011;64718;52.124;6.226;2023-07-13T15:07:57;3.92;;;1.50;;
76021;SDS011;64718;52.124;6.226;2023-07-13T15:10:27;4.82;;;1.83;;